CheckWX is a tool to help pilots better visualize weather data.  It is not intended as a substitute for an official pre-flight weather briefing.

06:50:49 UTC

EDTY TAF
Adolf Würth Airport
Schwäbisch Hall, Germany
TAF EDTY 170500Z 1706/1715 08005KT 0400 FG VV001 BECMG 1706/1708 9999 BKN012 BECMG 1708/1710 SCT025

Jun-17@
06:00 UTC

Jun-17 @ 06:00 UTC

Jun-17@
15:00 UTC

Jun-17 @ 15:00 UTC

TAF EDTY 170500Z 1706/1715 08005KT 0400 FG VV001
Wind
  • 080° at 5 KTS
Conditions
Fog
Cloud Levels
  • Vertical visibility at 100' AGL

Jun-17@
06:00 UTC

Jun-17 @ 06:00 UTC

Jun-17@
08:00 UTC

Jun-17 @ 08:00 UTC

BECMG 1706/1708 9999 BKN012

Becoming

Becoming Conditions expected by Mon, Jun 17, 2019 @ 08:00 UTC

Wind
  • 080° at 5 KTS
Conditions
Fog
Cloud Levels
  • Broken at 1,200' AGL

Jun-17@
08:00 UTC

Jun-17 @ 08:00 UTC

Jun-17@
15:00 UTC

Jun-17 @ 15:00 UTC

BECMG 1708/1710 SCT025

Becoming

Becoming Conditions expected by Mon, Jun 17, 2019 @ 10:00 UTC

Wind
  • 080° at 5 KTS
Conditions
Fog
Cloud Levels
  • Scattered at 2,500' AGL